Time;durP1;ratioP1;P1;durP2;ratioP2;P2;SDS_P1;SDS_P2;PMS_P1;PMS_P2;Temp;Humidity;BMP_temperature;BMP_pressure;BME280_temperature;BME280_humidity;BME280_pressure;Samples;Min_cycle;Max_cycle;Signal;HPM_P1;HPM_P2
2020/12/01 00:03:18;;;;;;;23.07;8.73;;;;;;;;;;10548015;28;20634;-75
2020/12/01 00:08:19;;;;;;;17.40;8.00;;;;;;;;;;10553094;28;20320;-75
2020/12/01 00:13:21;;;;;;;12.17;5.27;;;;;;;;;;10541376;28;20662;-74
2020/12/01 00:18:23;;;;;;;23.03;11.13;;;;;;;;;;10541382;28;20241;-75
2020/12/01 00:23:24;;;;;;;21.97;8.77;;;;;;;;;;10553355;28;20196;-75
2020/12/01 00:28:26;;;;;;;30.10;13.33;;;;;;;;;;10557385;28;20222;-75
2020/12/01 00:33:28;;;;;;;35.53;16.47;;;;;;;;;;10559770;28;20199;-76
2020/12/01 00:38:30;;;;;;;34.73;15.57;;;;;;;;;;10552803;28;20661;-76
2020/12/01 00:43:32;;;;;;;35.07;15.20;;;;;;;;;;10547873;28;20221;-75
2020/12/01 00:48:34;;;;;;;37.53;16.00;;;;;;;;;;10554724;28;20207;-75
2020/12/01 00:53:35;;;;;;;38.90;16.03;;;;;;;;;;10548096;28;20207;-75
2020/12/01 00:58:38;;;;;;;43.10;16.63;;;;;;;;;;10550027;28;20671;-75
2020/12/01 01:03:40;;;;;;;44.70;16.80;;;;;;;;;;10544573;28;20227;-74
2020/12/01 01:08:42;;;;;;;40.77;17.00;;;;;;;;;;10544607;28;20223;-75
2020/12/01 01:13:44;;;;;;;42.97;16.83;;;;;;;;;;10554511;28;20265;-73
2020/12/01 01:18:46;;;;;;;30.33;13.43;;;;;;;;;;10543859;28;20230;-75
2020/12/01 01:23:47;;;;;;;25.03;10.50;;;;;;;;;;10552134;28;20207;-74
2020/12/01 01:28:49;;;;;;;12.90;4.80;;;;;;;;;;10564095;28;20721;-73
2020/12/01 01:33:51;;;;;;;13.23;5.40;;;;;;;;;;10550347;28;20211;-74
2020/12/01 01:38:52;;;;;;;14.47;6.80;;;;;;;;;;10547213;28;20678;-74
2020/12/01 01:43:54;;;;;;;17.70;7.07;;;;;;;;;;10559183;28;20231;-75
2020/12/01 01:48:56;;;;;;;21.67;11.33;;;;;;;;;;10552817;28;20215;-74
2020/12/01 01:53:57;;;;;;;20.80;8.27;;;;;;;;;;10573331;28;20666;-75
2020/12/01 01:59:00;;;;;;;22.00;10.43;;;;;;;;;;10560670;28;20246;-74
2020/12/01 02:04:03;;;;;;;26.20;12.60;;;;;;;;;;10563632;28;20205;-74
2020/12/01 02:09:31;;;;;;;26.60;13.03;;;;;;;;;;10562191;28;20276;-75
2020/12/01 02:14:35;;;;;;;24.80;11.90;;;;;;;;;;10368033;28;20503;-73
2020/12/01 02:19:37;;;;;;;30.90;13.13;;;;;;;;;;10572030;28;20230;-76
2020/12/01 02:24:38;;;;;;;27.50;12.60;;;;;;;;;;10551884;28;20214;-73
2020/12/01 02:29:42;;;;;;;26.87;11.97;;;;;;;;;;10569968;28;20219;-74
2020/12/01 02:34:45;;;;;;;28.10;12.27;;;;;;;;;;10552857;28;20551;-75
2020/12/01 02:39:47;;;;;;;27.87;12.13;;;;;;;;;;10558554;28;20246;-73
2020/12/01 02:44:50;;;;;;;26.43;12.33;;;;;;;;;;10558520;28;20195;-71
2020/12/01 02:49:51;;;;;;;22.03;9.10;;;;;;;;;;10561155;28;20218;-72
2020/12/01 02:54:53;;;;;;;24.50;11.40;;;;;;;;;;10551901;28;20214;-72
2020/12/01 02:59:55;;;;;;;21.00;10.17;;;;;;;;;;10547755;28;20598;-73
2020/12/01 03:04:56;;;;;;;24.80;11.13;;;;;;;;;;10556266;28;20210;-72
2020/12/01 03:09:58;;;;;;;23.50;9.67;;;;;;;;;;10547808;28;20215;-74
2020/12/01 03:15:01;;;;;;;22.47;10.40;;;;;;;;;;10549210;28;20203;-73
2020/12/01 03:20:03;;;;;;;19.63;8.97;;;;;;;;;;10557331;28;20709;-72
2020/12/01 03:25:04;;;;;;;20.50;10.00;;;;;;;;;;10545346;28;20256;-72
2020/12/01 03:30:07;;;;;;;18.97;8.27;;;;;;;;;;10564817;28;20307;-73
2020/12/01 03:35:08;;;;;;;19.83;9.30;;;;;;;;;;10562532;28;20211;-73
2020/12/01 03:40:10;;;;;;;20.27;9.53;;;;;;;;;;10557283;28;20233;-73
2020/12/01 03:45:12;;;;;;;21.37;10.03;;;;;;;;;;10553534;28;20203;-74
2020/12/01 03:50:14;;;;;;;21.00;10.50;;;;;;;;;;10556285;28;20562;-73
2020/12/01 03:55:16;;;;;;;20.43;8.53;;;;;;;;;;10551403;28;20200;-73
2020/12/01 04:00:19;;;;;;;19.60;9.03;;;;;;;;;;10559279;28;20298;-73
2020/12/01 04:05:21;;;;;;;18.23;9.70;;;;;;;;;;10552396;28;20719;-74
2020/12/01 04:10:24;;;;;;;15.57;7.07;;;;;;;;;;10554080;28;20573;-74
2020/12/01 04:15:27;;;;;;;18.37;9.30;;;;;;;;;;10556888;28;20577;-74
2020/12/01 04:20:28;;;;;;;24.77;11.33;;;;;;;;;;10556212;28;20220;-73
2020/12/01 04:25:30;;;;;;;19.57;9.53;;;;;;;;;;10556823;28;20218;-73
2020/12/01 04:30:32;;;;;;;11.73;5.83;;;;;;;;;;10541806;28;20616;-73
2020/12/01 04:35:33;;;;;;;7.97;3.73;;;;;;;;;;10553172;28;20658;-73
2020/12/01 04:40:36;;;;;;;15.03;6.63;;;;;;;;;;10547821;28;20227;-73
2020/12/01 04:45:40;;;;;;;12.00;6.27;;;;;;;;;;10546868;28;20199;-72
2020/12/01 04:50:44;;;;;;;21.50;9.20;;;;;;;;;;10558582;28;20214;-73
2020/12/01 04:55:51;;;;;;;9.50;4.07;;;;;;;;;;10551273;28;20207;-73
2020/12/01 05:00:57;;;;;;;18.13;7.70;;;;;;;;;;10547324;28;20270;-73
2020/12/01 05:06:17;;;;;;;9.93;3.73;;;;;;;;;;10546985;28;20585;-73
2020/12/01 05:11:37;;;;;;;13.33;4.77;;;;;;;;;;10548729;28;20686;-73
2020/12/01 05:16:45;;;;;;;12.57;5.23;;;;;;;;;;10565684;28;20500;-71
2020/12/01 05:21:47;;;;;;;16.97;8.47;;;;;;;;;;10565752;28;20199;-69
2020/12/01 05:26:48;;;;;;;16.77;8.10;;;;;;;;;;10560376;28;20208;-70
2020/12/01 05:31:51;;;;;;;11.47;5.03;;;;;;;;;;10563393;28;20199;-72
2020/12/01 05:36:53;;;;;;;8.33;4.03;;;;;;;;;;10553047;28;20220;-72
2020/12/01 05:42:00;;;;;;;9.67;4.40;;;;;;;;;;10545546;28;20226;-71
2020/12/01 05:47:08;;;;;;;11.43;3.67;;;;;;;;;;10551888;28;20279;-71
2020/12/01 05:52:15;;;;;;;15.23;6.03;;;;;;;;;;10559487;28;20632;-72
2020/12/01 05:57:18;;;;;;;12.20;6.03;;;;;;;;;;10552888;28;20638;-73
2020/12/01 06:02:22;;;;;;;15.60;6.93;;;;;;;;;;10560142;28;20204;-72
2020/12/01 06:07:26;;;;;;;14.17;6.13;;;;;;;;;;10551765;28;20226;-73
2020/12/01 06:12:44;;;;;;;14.47;6.47;;;;;;;;;;10556859;28;20203;-73
2020/12/01 06:17:50;;;;;;;16.33;7.70;;;;;;;;;;10558914;28;20241;-70
2020/12/01 06:23:18;;;;;;;15.00;7.37;;;;;;;;;;10554847;28;20635;-72
2020/12/01 06:28:38;;;;;;;15.40;6.57;;;;;;;;;;10557248;28;21341;-72
2020/12/01 06:34:06;;;;;;;11.20;5.53;;;;;;;;;;10548124;28;20314;-72
2020/12/01 06:39:18;;;;;;;13.23;6.60;;;;;;;;;;10553944;28;20234;-71
2020/12/01 06:44:21;;;;;;;7.87;3.17;;;;;;;;;;10555795;28;20557;-71
2020/12/01 06:49:25;;;;;;;11.10;4.53;;;;;;;;;;10551168;28;20219;-73
2020/12/01 06:54:26;;;;;;;7.90;3.57;;;;;;;;;;10555699;28;20219;-73
2020/12/01 06:59:28;;;;;;;10.50;4.37;;;;;;;;;;10537095;28;20322;-73
2020/12/01 07:04:30;;;;;;;11.43;3.87;;;;;;;;;;10553971;28;20202;-72
2020/12/01 07:09:46;;;;;;;11.40;5.10;;;;;;;;;;10561744;28;20215;-73
2020/12/01 07:14:54;;;;;;;13.13;6.23;;;;;;;;;;10551049;28;20247;-72
2020/12/01 07:19:58;;;;;;;8.87;3.53;;;;;;;;;;10557244;28;20330;-72
2020/12/01 07:25:04;;;;;;;12.40;5.33;;;;;;;;;;10548410;28;20225;-74
2020/12/01 07:30:13;;;;;;;11.67;4.93;;;;;;;;;;10556614;28;20214;-72
2020/12/01 07:35:17;;;;;;;14.20;6.50;;;;;;;;;;10565819;28;20207;-73
2020/12/01 07:40:23;;;;;;;16.50;6.80;;;;;;;;;;10559465;28;20256;-73
2020/12/01 07:45:25;;;;;;;15.63;6.73;;;;;;;;;;10565906;28;21120;-73
2020/12/01 07:50:28;;;;;;;16.03;6.83;;;;;;;;;;10554237;28;20277;-72
2020/12/01 07:55:34;;;;;;;14.87;7.43;;;;;;;;;;10561670;28;20554;-72
2020/12/01 08:00:37;;;;;;;8.20;3.57;;;;;;;;;;10554366;28;20254;-72
2020/12/01 08:05:39;;;;;;;14.70;5.97;;;;;;;;;;10549461;28;20226;-70
2020/12/01 08:10:42;;;;;;;16.63;6.80;;;;;;;;;;10556795;28;20244;-72
2020/12/01 08:15:44;;;;;;;15.07;7.40;;;;;;;;;;10559096;28;20203;-72
2020/12/01 08:20:46;;;;;;;15.27;6.07;;;;;;;;;;10551087;28;20257;-73
2020/12/01 08:25:54;;;;;;;17.80;7.00;;;;;;;;;;10555613;28;20199;-72
2020/12/01 08:31:00;;;;;;;15.40;6.40;;;;;;;;;;10552205;28;20350;-71
2020/12/01 08:36:04;;;;;;;12.93;4.83;;;;;;;;;;10552906;28;20632;-72
2020/12/01 08:41:24;;;;;;;10.93;4.23;;;;;;;;;;10548155;28;20238;-72
2020/12/01 08:46:27;;;;;;;12.83;5.63;;;;;;;;;;10554026;28;20206;-72
2020/12/01 08:51:29;;;;;;;6.20;2.43;;;;;;;;;;10553509;28;20309;-72
2020/12/01 08:56:38;;;;;;;11.43;5.53;;;;;;;;;;10560457;28;20202;-73
2020/12/01 09:01:43;;;;;;;15.93;7.37;;;;;;;;;;10543603;28;20222;-71
2020/12/01 09:06:45;;;;;;;13.20;6.60;;;;;;;;;;10549946;28;20203;-73
2020/12/01 09:12:16;;;;;;;11.90;4.90;;;;;;;;;;10542078;28;20735;-71
2020/12/01 09:17:24;;;;;;;4.40;1.93;;;;;;;;;;10545099;28;20300;-71
2020/12/01 09:22:28;;;;;;;12.20;4.60;;;;;;;;;;10550080;28;20195;-72
2020/12/01 09:27:31;;;;;;;6.07;2.80;;;;;;;;;;10554457;28;20871;-72
2020/12/01 09:32:34;;;;;;;9.03;4.27;;;;;;;;;;10548710;28;20814;-74
2020/12/01 09:37:36;;;;;;;8.93;3.67;;;;;;;;;;10544519;28;20318;-73
2020/12/01 09:42:39;;;;;;;12.93;5.43;;;;;;;;;;10541757;28;20218;-74
2020/12/01 09:47:44;;;;;;;8.10;3.37;;;;;;;;;;10543800;28;20583;-73
2020/12/01 09:58:09;;;;;;;11.13;4.23;;;;;;;;;;10547306;28;20226;-72
2020/12/01 10:08:36;;;;;;;11.47;4.30;;;;;;;;;;10560738;28;20223;-72
2020/12/01 10:13:46;;;;;;;7.80;3.10;;;;;;;;;;10553039;28;20202;-74
2020/12/01 10:34:51;;;;;;;14.10;6.03;;;;;;;;;;10536345;28;20203;-73
2020/12/01 10:39:53;;;;;;;30.97;13.47;;;;;;;;;;10548770;28;20226;-73
2020/12/01 10:44:54;;;;;;;62.63;18.90;;;;;;;;;;10542834;28;20252;-74
2020/12/01 10:49:57;;;;;;;14.47;6.27;;;;;;;;;;10537349;28;20219;-73
2020/12/01 10:54:58;;;;;;;12.23;4.73;;;;;;;;;;10550156;28;20523;-73
2020/12/01 11:00:00;;;;;;;11.67;4.97;;;;;;;;;;10556964;28;20230;-74
2020/12/01 11:05:07;;;;;;;73.37;21.97;;;;;;;;;;10557926;28;20226;-72
2020/12/01 11:10:08;;;;;;;12.87;4.90;;;;;;;;;;10544387;28;20713;-74
2020/12/01 11:15:10;;;;;;;10.20;5.27;;;;;;;;;;10560665;28;20557;-72
2020/12/01 11:20:13;;;;;;;13.40;6.00;;;;;;;;;;10551433;28;20238;-75
2020/12/01 11:25:15;;;;;;;10.47;5.10;;;;;;;;;;10559619;28;20198;-74
2020/12/01 11:30:17;;;;;;;11.93;5.17;;;;;;;;;;10550150;28;20284;-72
2020/12/01 11:35:21;;;;;;;12.50;5.93;;;;;;;;;;10551628;28;20211;-74
2020/12/01 11:40:23;;;;;;;12.53;5.27;;;;;;;;;;10546548;28;20223;-75
2020/12/01 11:45:25;;;;;;;10.63;5.80;;;;;;;;;;10549981;28;20206;-74
2020/12/01 11:50:28;;;;;;;12.70;5.70;;;;;;;;;;10552666;28;20708;-75
2020/12/01 11:55:29;;;;;;;11.30;5.40;;;;;;;;;;10549049;28;20558;-74
2020/12/01 12:00:32;;;;;;;9.83;4.90;;;;;;;;;;10552991;28;20227;-73
2020/12/01 12:05:34;;;;;;;13.53;6.47;;;;;;;;;;10555999;28;21129;-75
2020/12/01 12:10:36;;;;;;;10.97;5.20;;;;;;;;;;10558304;28;20227;-75
2020/12/01 12:15:38;;;;;;;11.77;5.57;;;;;;;;;;10558231;28;20523;-73
2020/12/01 12:20:40;;;;;;;13.53;6.20;;;;;;;;;;10553488;28;20231;-73
2020/12/01 12:25:41;;;;;;;10.83;5.03;;;;;;;;;;10557661;28;20202;-74
2020/12/01 12:30:44;;;;;;;12.33;5.17;;;;;;;;;;10559486;28;20698;-74
2020/12/01 12:35:50;;;;;;;12.30;5.60;;;;;;;;;;10552195;28;20206;-73
2020/12/01 12:40:52;;;;;;;14.80;5.80;;;;;;;;;;10551231;28;20786;-73
2020/12/01 12:45:53;;;;;;;11.77;5.70;;;;;;;;;;10547703;28;20205;-73
2020/12/01 12:50:56;;;;;;;11.37;5.87;;;;;;;;;;10541431;28;20229;-72
2020/12/01 12:55:57;;;;;;;11.73;6.07;;;;;;;;;;10554985;28;20211;-72
2020/12/01 13:00:59;;;;;;;10.37;5.30;;;;;;;;;;10540171;28;20254;-73
2020/12/01 13:06:01;;;;;;;13.57;5.97;;;;;;;;;;10556474;28;20199;-74
2020/12/01 13:11:03;;;;;;;12.23;5.60;;;;;;;;;;10539186;28;20613;-73
2020/12/01 13:16:05;;;;;;;10.37;6.00;;;;;;;;;;10550958;28;20341;-74
2020/12/01 13:21:07;;;;;;;11.90;6.37;;;;;;;;;;10549284;28;20555;-74
2020/12/01 13:26:09;;;;;;;12.17;6.27;;;;;;;;;;10537348;28;20265;-74
2020/12/01 13:31:10;;;;;;;13.40;6.73;;;;;;;;;;10555887;28;20242;-74
2020/12/01 13:36:13;;;;;;;13.03;5.80;;;;;;;;;;10561907;28;20195;-74
2020/12/01 13:41:14;;;;;;;16.47;8.93;;;;;;;;;;10554665;28;20313;-74
2020/12/01 13:46:16;;;;;;;11.53;6.10;;;;;;;;;;10563357;28;20290;-74
2020/12/01 13:51:19;;;;;;;12.07;6.27;;;;;;;;;;10562738;28;20578;-74
2020/12/01 13:56:20;;;;;;;11.17;6.20;;;;;;;;;;10564491;28;20215;-74
2020/12/01 14:01:22;;;;;;;14.13;6.20;;;;;;;;;;10559065;28;20215;-76
2020/12/01 14:06:24;;;;;;;11.10;5.93;;;;;;;;;;10556332;28;20205;-74
2020/12/01 14:11:26;;;;;;;11.70;5.87;;;;;;;;;;10572507;28;20218;-74
2020/12/01 14:16:27;;;;;;;10.67;6.10;;;;;;;;;;10572078;28;20198;-74
2020/12/01 14:21:29;;;;;;;13.87;8.50;;;;;;;;;;10562514;28;20222;-75
2020/12/01 14:26:31;;;;;;;10.97;5.87;;;;;;;;;;10544566;28;20287;-74
2020/12/01 14:31:33;;;;;;;13.53;6.30;;;;;;;;;;10550461;28;20219;-73
2020/12/01 14:36:38;;;;;;;11.13;5.13;;;;;;;;;;10557594;28;20200;-75
2020/12/01 14:41:41;;;;;;;12.20;6.30;;;;;;;;;;10563018;28;20296;-73
2020/12/01 14:46:57;;;;;;;13.10;6.00;;;;;;;;;;10559922;28;20577;-74
2020/12/01 14:52:05;;;;;;;9.60;5.20;;;;;;;;;;10550107;28;20748;-74
2020/12/01 14:57:31;;;;;;;10.17;5.30;;;;;;;;;;10560497;28;20226;-73
2020/12/01 15:02:48;;;;;;;9.30;4.70;;;;;;;;;;10560318;28;20735;-74
2020/12/01 15:07:58;;;;;;;10.53;5.10;;;;;;;;;;10558479;28;20668;-74
2020/12/01 15:13:00;;;;;;;8.97;4.67;;;;;;;;;;10563550;28;20252;-74
2020/12/01 15:18:03;;;;;;;10.23;5.03;;;;;;;;;;10559160;28;20227;-75
2020/12/01 15:23:10;;;;;;;10.23;5.17;;;;;;;;;;10571993;28;20626;-73
2020/12/01 15:28:14;;;;;;;10.37;5.30;;;;;;;;;;10556529;28;20306;-73
2020/12/01 15:33:21;;;;;;;9.37;4.73;;;;;;;;;;10568916;28;20203;-74
2020/12/01 15:38:24;;;;;;;7.80;4.17;;;;;;;;;;10552654;28;22169;-72
2020/12/01 15:43:31;;;;;;;8.93;5.03;;;;;;;;;;10544648;28;20210;-72
2020/12/01 15:48:33;;;;;;;10.37;4.67;;;;;;;;;;10554625;28;20272;-73
2020/12/01 15:53:50;;;;;;;8.60;4.50;;;;;;;;;;10558964;28;20203;-72
2020/12/01 15:59:18;;;;;;;9.93;4.77;;;;;;;;;;10545932;28;20233;-72
2020/12/01 16:04:48;;;;;;;10.60;5.50;;;;;;;;;;10555435;28;20210;-72
2020/12/01 16:10:02;;;;;;;10.13;4.87;;;;;;;;;;10544512;28;20223;-73
2020/12/01 16:15:13;;;;;;;12.00;6.03;;;;;;;;;;10538307;28;20245;-74
2020/12/01 16:20:20;;;;;;;12.33;5.43;;;;;;;;;;10552172;28;20276;-73
2020/12/01 16:25:23;;;;;;;9.43;5.40;;;;;;;;;;10564103;28;20203;-73
2020/12/01 16:30:27;;;;;;;12.40;5.60;;;;;;;;;;10554741;28;20742;-73
2020/12/01 16:35:30;;;;;;;11.17;5.77;;;;;;;;;;10543162;28;20624;-74
2020/12/01 16:40:45;;;;;;;11.10;6.07;;;;;;;;;;10562880;28;20234;-74
2020/12/01 16:45:55;;;;;;;12.77;6.17;;;;;;;;;;10551915;28;20214;-73
2020/12/01 16:50:58;;;;;;;11.13;6.03;;;;;;;;;;10554951;28;20215;-74
2020/12/01 16:56:11;;;;;;;10.90;6.03;;;;;;;;;;10560803;28;20280;-74
2020/12/01 17:01:20;;;;;;;11.73;6.60;;;;;;;;;;10566702;28;20215;-74
2020/12/01 17:06:41;;;;;;;13.03;7.23;;;;;;;;;;10557806;28;20207;-74
2020/12/01 17:11:58;;;;;;;12.27;6.60;;;;;;;;;;10552431;28;20223;-73
2020/12/01 17:17:11;;;;;;;13.50;7.27;;;;;;;;;;10560138;28;20206;-73
2020/12/01 17:22:14;;;;;;;14.27;7.87;;;;;;;;;;10547078;28;20241;-73
2020/12/01 17:27:17;;;;;;;12.17;7.07;;;;;;;;;;10540749;28;20304;-72
2020/12/01 17:32:40;;;;;;;10.90;6.57;;;;;;;;;;10550417;28;20287;-73
2020/12/01 17:37:51;;;;;;;11.67;6.93;;;;;;;;;;10550225;28;20231;-73
2020/12/01 17:42:59;;;;;;;13.23;7.20;;;;;;;;;;10552020;28;20209;-74
2020/12/01 17:48:07;;;;;;;11.60;6.67;;;;;;;;;;10546482;28;20242;-72
2020/12/01 17:53:14;;;;;;;11.80;6.70;;;;;;;;;;10551150;28;20199;-74
2020/12/01 17:58:18;;;;;;;11.90;7.33;;;;;;;;;;10544385;28;20230;-74
2020/12/01 18:03:20;;;;;;;11.47;7.40;;;;;;;;;;10556093;28;20203;-74
2020/12/01 18:08:26;;;;;;;11.97;7.40;;;;;;;;;;10543129;28;20683;-71
2020/12/01 18:13:28;;;;;;;14.83;7.67;;;;;;;;;;10551643;28;20547;-73
2020/12/01 18:18:38;;;;;;;13.57;7.60;;;;;;;;;;10550202;28;20226;-70
2020/12/01 18:23:45;;;;;;;15.00;7.77;;;;;;;;;;10564096;28;20200;-72
2020/12/01 18:28:49;;;;;;;12.03;7.10;;;;;;;;;;10561179;28;20219;-73
2020/12/01 18:33:59;;;;;;;12.87;7.17;;;;;;;;;;10560474;28;20210;-71
2020/12/01 18:39:01;;;;;;;13.63;7.40;;;;;;;;;;10556838;28;20237;-73
2020/12/01 18:44:07;;;;;;;16.60;9.57;;;;;;;;;;10560658;27;20625;-74
2020/12/01 18:49:08;;;;;;;13.80;8.10;;;;;;;;;;10558484;27;20227;-74
2020/12/01 18:54:10;;;;;;;13.80;8.07;;;;;;;;;;10561205;28;20282;-74
2020/12/01 18:59:12;;;;;;;16.70;8.43;;;;;;;;;;10553751;28;20219;-73
2020/12/01 19:04:14;;;;;;;14.10;7.87;;;;;;;;;;10557020;28;20642;-74
2020/12/01 19:09:15;;;;;;;14.70;8.03;;;;;;;;;;10552306;28;20628;-74
2020/12/01 19:14:18;;;;;;;12.87;7.87;;;;;;;;;;10556045;28;20195;-73
2020/12/01 19:19:19;;;;;;;15.27;7.80;;;;;;;;;;10558505;28;20833;-74
2020/12/01 19:24:22;;;;;;;13.83;7.77;;;;;;;;;;10560053;28;20238;-74
2020/12/01 19:29:24;;;;;;;18.70;10.53;;;;;;;;;;10557745;28;20608;-74
2020/12/01 19:34:26;;;;;;;14.60;7.50;;;;;;;;;;10559733;28;20997;-74
2020/12/01 19:39:27;;;;;;;13.07;7.23;;;;;;;;;;10557437;28;20704;-74
2020/12/01 19:44:30;;;;;;;13.13;7.63;;;;;;;;;;10550439;28;20249;-74
2020/12/01 19:49:32;;;;;;;13.00;8.20;;;;;;;;;;10533402;28;20671;-74
2020/12/01 19:54:33;;;;;;;13.93;8.23;;;;;;;;;;10554301;28;20199;-74
2020/12/01 19:59:35;;;;;;;12.97;7.43;;;;;;;;;;10553635;28;20226;-75
2020/12/01 20:04:37;;;;;;;15.13;8.20;;;;;;;;;;10545567;28;20706;-72
2020/12/01 20:09:38;;;;;;;13.57;7.57;;;;;;;;;;10553811;28;20294;-74
2020/12/01 20:14:41;;;;;;;15.63;8.97;;;;;;;;;;10558320;28;20203;-75
2020/12/01 20:19:42;;;;;;;13.47;8.10;;;;;;;;;;10554648;28;20401;-74
2020/12/01 20:24:44;;;;;;;14.20;8.00;;;;;;;;;;10552229;28;20191;-76
2020/12/01 20:29:46;;;;;;;13.33;8.03;;;;;;;;;;10547500;28;20223;-73
2020/12/01 20:34:48;;;;;;;15.47;8.07;;;;;;;;;;10552895;28;20583;-72
2020/12/01 20:40:11;;;;;;;15.83;9.30;;;;;;;;;;10551130;28;20310;-72
2020/12/01 20:45:13;;;;;;;17.77;10.17;;;;;;;;;;10562117;28;20199;-74
2020/12/01 20:50:15;;;;;;;17.90;10.00;;;;;;;;;;10549093;28;20291;-71
2020/12/01 20:55:17;;;;;;;16.03;9.03;;;;;;;;;;10553642;28;20218;-73
2020/12/01 21:00:19;;;;;;;18.10;10.43;;;;;;;;;;10552587;28;20219;-74
2020/12/01 21:05:21;;;;;;;18.67;11.27;;;;;;;;;;10557847;28;20214;-72
2020/12/01 21:10:22;;;;;;;20.57;11.60;;;;;;;;;;10558943;28;20215;-73
2020/12/01 21:15:25;;;;;;;17.10;10.57;;;;;;;;;;10557085;28;20233;-74
2020/12/01 21:20:29;;;;;;;17.80;10.27;;;;;;;;;;10555551;28;20225;-72
2020/12/01 21:25:30;;;;;;;17.77;10.07;;;;;;;;;;10552560;28;20606;-74
2020/12/01 21:30:39;;;;;;;20.40;10.97;;;;;;;;;;10548895;28;20207;-72
2020/12/01 21:35:40;;;;;;;20.30;10.67;;;;;;;;;;10549750;28;20221;-75
2020/12/01 21:40:42;;;;;;;17.00;10.20;;;;;;;;;;10556965;28;20230;-73
2020/12/01 21:45:44;;;;;;;17.80;9.63;;;;;;;;;;10560769;28;20738;-72
2020/12/01 21:50:47;;;;;;;21.63;10.83;;;;;;;;;;10554850;28;20271;-74
2020/12/01 21:56:00;;;;;;;18.37;10.83;;;;;;;;;;10563177;28;20209;-73
2020/12/01 22:01:10;;;;;;;19.97;10.90;;;;;;;;;;10566515;28;20297;-73
2020/12/01 22:06:23;;;;;;;19.83;11.53;;;;;;;;;;10558240;28;20278;-74
2020/12/01 22:11:30;;;;;;;20.30;11.43;;;;;;;;;;10564507;28;20216;-72
2020/12/01 22:16:35;;;;;;;25.13;12.57;;;;;;;;;;10568490;28;20200;-74
2020/12/01 22:21:55;;;;;;;22.90;12.83;;;;;;;;;;10559811;28;21580;-74
2020/12/01 22:27:02;;;;;;;26.07;13.37;;;;;;;;;;10561237;28;20207;-72
2020/12/01 22:32:24;;;;;;;21.20;12.00;;;;;;;;;;10561574;28;20236;-70
2020/12/01 22:37:27;;;;;;;20.40;11.13;;;;;;;;;;10561256;28;20635;-74
2020/12/01 22:42:32;;;;;;;24.07;13.30;;;;;;;;;;10562757;28;20781;-74
2020/12/01 22:47:52;;;;;;;22.67;12.00;;;;;;;;;;10557604;28;20329;-75
2020/12/01 22:53:12;;;;;;;23.30;12.90;;;;;;;;;;10562817;28;20281;-73
2020/12/01 22:58:16;;;;;;;20.30;12.43;;;;;;;;;;10554015;28;20223;-74
2020/12/01 23:03:20;;;;;;;23.73;13.00;;;;;;;;;;10551891;28;20500;-71
2020/12/01 23:08:22;;;;;;;21.10;12.73;;;;;;;;;;10555485;28;20223;-71
2020/12/01 23:13:29;;;;;;;20.27;11.93;;;;;;;;;;10546184;28;20191;-73
2020/12/01 23:18:31;;;;;;;22.43;13.40;;;;;;;;;;10560647;28;20222;-73
2020/12/01 23:23:33;;;;;;;21.17;11.70;;;;;;;;;;10547623;28;20215;-73
2020/12/01 23:28:36;;;;;;;20.17;11.67;;;;;;;;;;10562543;28;20222;-76
2020/12/01 23:33:38;;;;;;;22.80;13.17;;;;;;;;;;10548303;28;20221;-72
2020/12/01 23:38:41;;;;;;;25.70;14.67;;;;;;;;;;10557296;28;20229;-74
2020/12/01 23:44:04;;;;;;;25.37;14.17;;;;;;;;;;10539338;28;20211;-72
2020/12/01 23:49:10;;;;;;;24.30;12.80;;;;;;;;;;10546005;28;20230;-71
2020/12/01 23:54:12;;;;;;;22.13;12.50;;;;;;;;;;10552878;28;20545;-72
2020/12/01 23:59:14;;;;;;;21.83;13.30;;;;;;;;;;10563089;28;20696;-72
